Oceanis — LZH2782 — position and weather

sailwx.info

Track history (hours):
 
Tides and Currents Weather Stations Pressure Air Temp Water Temp Dewpoint Dewpoint Depression Visibility Wind Speed Wind Dir Waves Ship Positions

Oceanis

Last reported at 2017-Sep-20 13:17 UTC. Time now 2017-Sep-21 18:04 UTC.
Position N 40°56' E 024°25'.

Length 17 m.

Type: Sailing vessel. MMSI: 207827820.

Date/timePositionNaut miles runAvg speedWind from/ knotsBaromVisibWave heightAir tempDewpointWater temp
2017-Sep-20 13:17N 40°56' E 024°25'1 4.5
2017-Sep-20 13:00N 40°55' E 024°26'3 6.2
2017-Sep-20 12:29N 40°54' E 024°30'3 5.6
2017-Sep-20 12:00N 40°53' E 024°33'3 5.1
2017-Sep-20 11:27N 40°51' E 024°36'1 3.1
2017-Sep-20 10:59N 40°50' E 024°38'1 2.9
2017-Sep-20 10:30N 40°50' E 024°39'2 4.2
2017-Sep-20 09:59N 40°48' E 024°41'3 5.3
2017-Sep-20 09:30N 40°47' E 024°44'2 2.5
2017-Sep-20 08:48N 40°45' E 024°45'0 0.0
2017-Sep-20 08:27N 40°45' E 024°45'1 2.2
2017-Sep-20 08:00N 40°46' E 024°45'2 3.7
2017-Sep-20 07:30N 40°47' E 024°42'0 0.0
2017-Sep-20 07:00N 40°47' E 024°42'0 0.0
2017-Sep-20 06:30N 40°47' E 024°42'0 0.0
2017-Sep-20 06:00N 40°47' E 024°42'0 0.0
2017-Sep-20 05:30N 40°47' E 024°42'0 0.0
2017-Sep-20 04:51N 40°47' E 024°42'0 0.0
2017-Sep-20 04:27N 40°47' E 024°42'0 0.0
2017-Sep-20 03:57N 40°47' E 024°42'0 0.0
2017-Sep-19 23:27N 40°47' E 024°42'0 0.0
2017-Sep-19 22:57N 40°47' E 024°42'0 0.0
2017-Sep-19 21:39N 40°47' E 024°42'0 0.0
2017-Sep-19 21:30N 40°47' E 024°42'0 0.0
2017-Sep-19 21:00N 40°47' E 024°42'0 0.0
2017-Sep-19 17:51N 40°47' E 024°42'0 0.0
2017-Sep-19 17:24N 40°47' E 024°42'0 0.0
2017-Sep-19 16:57N 40°47' E 024°42'0 0.0
2017-Sep-19 16:30N 40°47' E 024°42'0 0.5
2017-Sep-19 16:00N 40°47' E 024°42'3 5.4
2017-Sep-19 15:28N 40°48' E 024°39'1 1.8
2017-Sep-19 14:55N 40°48' E 024°38'0 0.0
2017-Sep-19 14:25N 40°48' E 024°38'0 0.0
2017-Sep-19 13:55N 40°48' E 024°38'0 0.0
2017-Sep-19 13:25N 40°48' E 024°38'0 0.0
2017-Sep-19 12:58N 40°48' E 024°38'1 2.0
2017-Sep-19 12:30N 40°47' E 024°37'3 5.2
2017-Sep-19 11:57N 40°47' E 024°33'3 6.6
2017-Sep-19 11:30N 40°49' E 024°31'3 6.3
2017-Sep-19 11:00N 40°51' E 024°28'3 5.9
2017-Sep-19 10:30N 40°54' E 024°26'  
Track history (hours):
 
Tides and Currents Weather Stations Pressure Air Temp Water Temp Dewpoint Dewpoint Depression Visibility Wind Speed Wind Dir Waves Ship Positions

Oceanis

Last reported at 2017-Sep-20 13:17 UTC. Time now 2017-Sep-21 18:04 UTC.
Position N 40°56' E 024°25'.

Length 17 m.

Type: Sailing vessel. MMSI: 207827820.

Date/timePositionNaut miles runAvg speedWind from/ knotsBaromVisibWave heightAir tempDewpointWater temp
2017-Sep-20 13:17N 40°56' E 024°25'1 4.5
2017-Sep-20 13:00N 40°55' E 024°26'3 6.2
2017-Sep-20 12:29N 40°54' E 024°30'3 5.6
2017-Sep-20 12:00N 40°53' E 024°33'3 5.1
2017-Sep-20 11:27N 40°51' E 024°36'1 3.1
2017-Sep-20 10:59N 40°50' E 024°38'1 2.9
2017-Sep-20 10:30N 40°50' E 024°39'2 4.2
2017-Sep-20 09:59N 40°48' E 024°41'3 5.3
2017-Sep-20 09:30N 40°47' E 024°44'2 2.5
2017-Sep-20 08:48N 40°45' E 024°45'0 0.0
2017-Sep-20 08:27N 40°45' E 024°45'1 2.2
2017-Sep-20 08:00N 40°46' E 024°45'2 3.7
2017-Sep-20 07:30N 40°47' E 024°42'0 0.0
2017-Sep-20 07:00N 40°47' E 024°42'0 0.0
2017-Sep-20 06:30N 40°47' E 024°42'0 0.0
2017-Sep-20 06:00N 40°47' E 024°42'0 0.0
2017-Sep-20 05:30N 40°47' E 024°42'0 0.0
2017-Sep-20 04:51N 40°47' E 024°42'0 0.0
2017-Sep-20 04:27N 40°47' E 024°42'0 0.0
2017-Sep-20 03:57N 40°47' E 024°42'0 0.0
2017-Sep-19 23:27N 40°47' E 024°42'0 0.0
2017-Sep-19 22:57N 40°47' E 024°42'0 0.0
2017-Sep-19 21:39N 40°47' E 024°42'0 0.0
2017-Sep-19 21:30N 40°47' E 024°42'0 0.0
2017-Sep-19 21:00N 40°47' E 024°42'0 0.0
2017-Sep-19 17:51N 40°47' E 024°42'0 0.0
2017-Sep-19 17:24N 40°47' E 024°42'0 0.0
2017-Sep-19 16:57N 40°47' E 024°42'0 0.0
2017-Sep-19 16:30N 40°47' E 024°42'0 0.5
2017-Sep-19 16:00N 40°47' E 024°42'3 5.4
2017-Sep-19 15:28N 40°48' E 024°39'1 1.8
2017-Sep-19 14:55N 40°48' E 024°38'0 0.0
2017-Sep-19 14:25N 40°48' E 024°38'0 0.0
2017-Sep-19 13:55N 40°48' E 024°38'0 0.0
2017-Sep-19 13:25N 40°48' E 024°38'0 0.0
2017-Sep-19 12:58N 40°48' E 024°38'1 2.0
2017-Sep-19 12:30N 40°47' E 024°37'3 5.2
2017-Sep-19 11:57N 40°47' E 024°33'3 6.6
2017-Sep-19 11:30N 40°49' E 024°31'3 6.3
2017-Sep-19 11:00N 40°51' E 024°28'3 5.9
2017-Sep-19 10:30N 40°54' E 024°26'  

Dump ship's entire track history